sensor_id;sensor_type;location;lat;lon;timestamp;temperature;humidity
73360;DHT22;63092;43.582;19.528;2023-05-19T00:01:23;13.70;99.90
73360;DHT22;63092;43.582;19.528;2023-05-19T00:03:54;13.70;99.90
73360;DHT22;63092;43.582;19.528;2023-05-19T00:06:26;13.60;99.90
73360;DHT22;63092;43.582;19.528;2023-05-19T00:09:08;13.50;99.90
73360;DHT22;63092;43.582;19.528;2023-05-19T00:11:36;13.60;99.90
73360;DHT22;63092;43.582;19.528;2023-05-19T00:14:04;13.50;99.90
73360;DHT22;63092;43.582;19.528;2023-05-19T00:16:31;13.50;99.90
73360;DHT22;63092;43.582;19.528;2023-05-19T00:18:57;13.50;99.90
73360;DHT22;63092;43.582;19.528;2023-05-19T00:21:28;13.50;99.90
73360;DHT22;63092;43.582;19.528;2023-05-19T00:23:54;13.60;99.90
73360;DHT22;63092;43.582;19.528;2023-05-19T00:26:20;13.70;99.90
73360;DHT22;63092;43.582;19.528;2023-05-19T00:28:49;13.70;99.90
73360;DHT22;63092;43.582;19.528;2023-05-19T00:31:15;13.70;99.90
73360;DHT22;63092;43.582;19.528;2023-05-19T00:33:41;13.60;99.90
73360;DHT22;63092;43.582;19.528;2023-05-19T00:36:07;13.60;99.90
73360;DHT22;63092;43.582;19.528;2023-05-19T00:38:34;13.60;99.90
73360;DHT22;63092;43.582;19.528;2023-05-19T00:41:02;13.60;99.90
73360;DHT22;63092;43.582;19.528;2023-05-19T00:43:27;13.70;99.90
73360;DHT22;63092;43.582;19.528;2023-05-19T00:45:55;13.60;99.90
73360;DHT22;63092;43.582;19.528;2023-05-19T00:48:21;13.70;99.90
73360;DHT22;63092;43.582;19.528;2023-05-19T00:50:49;13.70;99.90
73360;DHT22;63092;43.582;19.528;2023-05-19T00:53:16;13.70;99.90
73360;DHT22;63092;43.582;19.528;2023-05-19T00:55:42;13.70;99.90
73360;DHT22;63092;43.582;19.528;2023-05-19T00:58:09;13.70;99.90
73360;DHT22;63092;43.582;19.528;2023-05-19T01:00:36;13.60;99.90
73360;DHT22;63092;43.582;19.528;2023-05-19T01:03:04;13.50;99.90
73360;DHT22;63092;43.582;19.528;2023-05-19T01:05:40;13.50;99.90
73360;DHT22;63092;43.582;19.528;2023-05-19T01:08:07;13.50;99.90
73360;DHT22;63092;43.582;19.528;2023-05-19T01:10:33;13.50;99.90
73360;DHT22;63092;43.582;19.528;2023-05-19T01:13:00;13.40;99.90
73360;DHT22;63092;43.582;19.528;2023-05-19T01:15:27;13.40;99.90
73360;DHT22;63092;43.582;19.528;2023-05-19T01:18:07;13.30;99.90
73360;DHT22;63092;43.582;19.528;2023-05-19T01:20:50;13.30;99.90
73360;DHT22;63092;43.582;19.528;2023-05-19T01:23:36;13.30;99.90
73360;DHT22;63092;43.582;19.528;2023-05-19T01:26:10;13.40;99.90
73360;DHT22;63092;43.582;19.528;2023-05-19T01:28:52;13.30;99.90
73360;DHT22;63092;43.582;19.528;2023-05-19T01:31:23;13.40;99.90
73360;DHT22;63092;43.582;19.528;2023-05-19T01:33:52;13.40;99.90
73360;DHT22;63092;43.582;19.528;2023-05-19T01:36:20;13.50;99.90
73360;DHT22;63092;43.582;19.528;2023-05-19T01:38:51;13.50;99.90
73360;DHT22;63092;43.582;19.528;2023-05-19T01:41:19;13.50;99.90
73360;DHT22;63092;43.582;19.528;2023-05-19T01:43:47;13.50;99.90
73360;DHT22;63092;43.582;19.528;2023-05-19T01:46:14;13.60;99.90
73360;DHT22;63092;43.582;19.528;2023-05-19T01:48:41;13.60;99.90
73360;DHT22;63092;43.582;19.528;2023-05-19T01:51:07;13.60;99.90
73360;DHT22;63092;43.582;19.528;2023-05-19T01:53:33;13.70;99.90
73360;DHT22;63092;43.582;19.528;2023-05-19T01:55:59;13.70;99.90
73360;DHT22;63092;43.582;19.528;2023-05-19T01:58:44;13.70;99.90
73360;DHT22;63092;43.582;19.528;2023-05-19T02:01:21;13.80;99.90
73360;DHT22;63092;43.582;19.528;2023-05-19T02:04:23;13.80;99.90
73360;DHT22;63092;43.582;19.528;2023-05-19T02:09:53;13.80;99.90
73360;DHT22;63092;43.582;19.528;2023-05-19T02:12:33;13.90;99.90
73360;DHT22;63092;43.582;19.528;2023-05-19T02:15:17;13.90;99.90
73360;DHT22;63092;43.582;19.528;2023-05-19T02:17:45;13.90;99.90
73360;DHT22;63092;43.582;19.528;2023-05-19T02:20:16;13.90;99.90
73360;DHT22;63092;43.582;19.528;2023-05-19T02:22:42;13.90;99.90
73360;DHT22;63092;43.582;19.528;2023-05-19T02:25:09;13.90;99.90
73360;DHT22;63092;43.582;19.528;2023-05-19T02:27:36;13.80;99.90
73360;DHT22;63092;43.582;19.528;2023-05-19T02:30:03;13.80;99.90
73360;DHT22;63092;43.582;19.528;2023-05-19T02:32:29;13.80;99.90
73360;DHT22;63092;43.582;19.528;2023-05-19T02:34:55;13.80;99.90
73360;DHT22;63092;43.582;19.528;2023-05-19T02:37:21;13.80;99.90
73360;DHT22;63092;43.582;19.528;2023-05-19T02:39:48;13.80;99.90
73360;DHT22;63092;43.582;19.528;2023-05-19T02:42:14;13.80;99.90
73360;DHT22;63092;43.582;19.528;2023-05-19T02:44:42;13.70;99.90
73360;DHT22;63092;43.582;19.528;2023-05-19T02:47:08;13.70;99.90
73360;DHT22;63092;43.582;19.528;2023-05-19T02:49:34;13.70;99.90
73360;DHT22;63092;43.582;19.528;2023-05-19T02:52:03;13.70;99.90
73360;DHT22;63092;43.582;19.528;2023-05-19T02:54:32;13.70;99.90
73360;DHT22;63092;43.582;19.528;2023-05-19T02:56:58;13.70;99.90
73360;DHT22;63092;43.582;19.528;2023-05-19T02:59:24;13.70;99.90
73360;DHT22;63092;43.582;19.528;2023-05-19T03:01:57;13.70;99.90
73360;DHT22;63092;43.582;19.528;2023-05-19T03:04:23;13.60;99.90
73360;DHT22;63092;43.582;19.528;2023-05-19T03:06:49;13.50;99.90
73360;DHT22;63092;43.582;19.528;2023-05-19T03:09:15;13.50;99.90
73360;DHT22;63092;43.582;19.528;2023-05-19T03:11:41;13.40;99.90
73360;DHT22;63092;43.582;19.528;2023-05-19T03:14:06;13.40;99.90
73360;DHT22;63092;43.582;19.528;2023-05-19T03:16:34;13.40;99.90
73360;DHT22;63092;43.582;19.528;2023-05-19T03:19:00;13.40;99.90
73360;DHT22;63092;43.582;19.528;2023-05-19T03:21:25;13.30;99.90
73360;DHT22;63092;43.582;19.528;2023-05-19T03:23:51;13.40;99.90
73360;DHT22;63092;43.582;19.528;2023-05-19T03:26:17;13.30;99.90
73360;DHT22;63092;43.582;19.528;2023-05-19T03:28:43;13.40;99.90
73360;DHT22;63092;43.582;19.528;2023-05-19T03:31:09;13.40;99.90
73360;DHT22;63092;43.582;19.528;2023-05-19T03:33:34;13.50;99.90
73360;DHT22;63092;43.582;19.528;2023-05-19T03:36:00;13.50;99.90
73360;DHT22;63092;43.582;19.528;2023-05-19T03:38:26;13.50;99.90
73360;DHT22;63092;43.582;19.528;2023-05-19T03:40:52;13.50;99.90
73360;DHT22;63092;43.582;19.528;2023-05-19T03:43:18;13.40;99.90
73360;DHT22;63092;43.582;19.528;2023-05-19T03:45:43;13.50;99.90
73360;DHT22;63092;43.582;19.528;2023-05-19T03:48:09;13.50;99.90
73360;DHT22;63092;43.582;19.528;2023-05-19T03:50:35;13.50;99.90
73360;DHT22;63092;43.582;19.528;2023-05-19T03:53:02;13.50;99.90
73360;DHT22;63092;43.582;19.528;2023-05-19T03:55:28;13.40;99.90
73360;DHT22;63092;43.582;19.528;2023-05-19T03:57:54;13.40;99.90
73360;DHT22;63092;43.582;19.528;2023-05-19T04:00:21;13.40;99.90
73360;DHT22;63092;43.582;19.528;2023-05-19T04:02:47;13.50;99.90
73360;DHT22;63092;43.582;19.528;2023-05-19T04:05:13;13.50;99.90
73360;DHT22;63092;43.582;19.528;2023-05-19T04:07:39;13.50;99.90
73360;DHT22;63092;43.582;19.528;2023-05-19T04:10:06;13.50;99.90
73360;DHT22;63092;43.582;19.528;2023-05-19T04:12:32;13.50;99.90
73360;DHT22;63092;43.582;19.528;2023-05-19T04:14:58;13.60;99.90
73360;DHT22;63092;43.582;19.528;2023-05-19T04:17:24;13.60;99.90
73360;DHT22;63092;43.582;19.528;2023-05-19T04:19:51;13.60;99.90
73360;DHT22;63092;43.582;19.528;2023-05-19T04:22:17;13.70;99.90
73360;DHT22;63092;43.582;19.528;2023-05-19T04:24:43;13.70;99.90
73360;DHT22;63092;43.582;19.528;2023-05-19T04:27:10;13.70;99.90
73360;DHT22;63092;43.582;19.528;2023-05-19T04:29:38;13.80;99.90
73360;DHT22;63092;43.582;19.528;2023-05-19T04:32:05;13.80;99.90
73360;DHT22;63092;43.582;19.528;2023-05-19T04:34:31;13.80;99.90
73360;DHT22;63092;43.582;19.528;2023-05-19T04:36:58;13.90;99.90
73360;DHT22;63092;43.582;19.528;2023-05-19T04:39:24;13.90;99.90
73360;DHT22;63092;43.582;19.528;2023-05-19T04:41:50;13.90;99.90
73360;DHT22;63092;43.582;19.528;2023-05-19T04:44:16;13.90;99.90
73360;DHT22;63092;43.582;19.528;2023-05-19T04:46:42;14.00;99.90
73360;DHT22;63092;43.582;19.528;2023-05-19T04:49:09;14.00;99.90
73360;DHT22;63092;43.582;19.528;2023-05-19T04:51:39;14.10;99.90
73360;DHT22;63092;43.582;19.528;2023-05-19T04:54:07;14.00;99.90
73360;DHT22;63092;43.582;19.528;2023-05-19T04:56:32;14.10;99.90
73360;DHT22;63092;43.582;19.528;2023-05-19T04:58:58;14.10;99.90
73360;DHT22;63092;43.582;19.528;2023-05-19T05:01:24;14.20;99.90
73360;DHT22;63092;43.582;19.528;2023-05-19T05:03:51;14.10;99.90
73360;DHT22;63092;43.582;19.528;2023-05-19T05:06:23;14.10;99.90
73360;DHT22;63092;43.582;19.528;2023-05-19T05:08:49;14.30;99.90
73360;DHT22;63092;43.582;19.528;2023-05-19T05:11:15;14.40;99.90
73360;DHT22;63092;43.582;19.528;2023-05-19T05:13:42;14.50;99.90
73360;DHT22;63092;43.582;19.528;2023-05-19T05:16:08;14.50;99.90
73360;DHT22;63092;43.582;19.528;2023-05-19T05:18:34;14.40;99.90
73360;DHT22;63092;43.582;19.528;2023-05-19T05:21:03;14.40;99.90
73360;DHT22;63092;43.582;19.528;2023-05-19T05:23:29;14.50;99.90
73360;DHT22;63092;43.582;19.528;2023-05-19T05:25:55;14.60;99.90
73360;DHT22;63092;43.582;19.528;2023-05-19T05:28:21;14.70;99.90
73360;DHT22;63092;43.582;19.528;2023-05-19T05:30:47;14.90;99.90
73360;DHT22;63092;43.582;19.528;2023-05-19T05:35:39;15.30;99.90
73360;DHT22;63092;43.582;19.528;2023-05-19T05:38:05;15.50;99.90
73360;DHT22;63092;43.582;19.528;2023-05-19T05:42:57;15.70;99.90
73360;DHT22;63092;43.582;19.528;2023-05-19T05:45:25;15.70;99.90
73360;DHT22;63092;43.582;19.528;2023-05-19T05:47:51;15.70;99.90
73360;DHT22;63092;43.582;19.528;2023-05-19T05:50:18;15.80;99.90
73360;DHT22;63092;43.582;19.528;2023-05-19T05:52:47;15.80;99.90
73360;DHT22;63092;43.582;19.528;2023-05-19T05:55:13;15.90;99.90
73360;DHT22;63092;43.582;19.528;2023-05-19T05:57:40;15.80;99.90
73360;DHT22;63092;43.582;19.528;2023-05-19T06:00:09;15.80;99.90
73360;DHT22;63092;43.582;19.528;2023-05-19T06:02:41;15.60;99.90
73360;DHT22;63092;43.582;19.528;2023-05-19T06:05:08;15.80;99.90
73360;DHT22;63092;43.582;19.528;2023-05-19T06:07:37;15.80;99.90
73360;DHT22;63092;43.582;19.528;2023-05-19T06:10:03;15.70;99.90
73360;DHT22;63092;43.582;19.528;2023-05-19T06:12:29;15.60;99.90
73360;DHT22;63092;43.582;19.528;2023-05-19T06:14:55;15.40;99.90
73360;DHT22;63092;43.582;19.528;2023-05-19T06:17:21;15.30;99.90
73360;DHT22;63092;43.582;19.528;2023-05-19T06:19:46;15.20;99.90
73360;DHT22;63092;43.582;19.528;2023-05-19T06:22:12;15.20;99.90
73360;DHT22;63092;43.582;19.528;2023-05-19T06:24:38;15.10;99.90
73360;DHT22;63092;43.582;19.528;2023-05-19T06:27:04;15.00;99.90
73360;DHT22;63092;43.582;19.528;2023-05-19T06:29:30;15.00;99.90
73360;DHT22;63092;43.582;19.528;2023-05-19T06:31:55;15.00;99.90
73360;DHT22;63092;43.582;19.528;2023-05-19T06:34:21;15.00;99.90
73360;DHT22;63092;43.582;19.528;2023-05-19T06:36:47;15.10;99.90
73360;DHT22;63092;43.582;19.528;2023-05-19T06:39:12;15.10;99.90
73360;DHT22;63092;43.582;19.528;2023-05-19T06:41:38;15.00;99.90
73360;DHT22;63092;43.582;19.528;2023-05-19T06:44:05;15.10;99.90
73360;DHT22;63092;43.582;19.528;2023-05-19T06:46:31;15.10;99.90
73360;DHT22;63092;43.582;19.528;2023-05-19T06:48:57;15.00;99.90
73360;DHT22;63092;43.582;19.528;2023-05-19T06:51:22;15.10;99.90
73360;DHT22;63092;43.582;19.528;2023-05-19T06:53:48;15.20;99.90
73360;DHT22;63092;43.582;19.528;2023-05-19T06:56:14;15.30;99.90
73360;DHT22;63092;43.582;19.528;2023-05-19T06:58:40;15.40;99.90
73360;DHT22;63092;43.582;19.528;2023-05-19T07:01:07;15.40;99.90
73360;DHT22;63092;43.582;19.528;2023-05-19T07:03:32;15.50;99.90
73360;DHT22;63092;43.582;19.528;2023-05-19T07:05:58;15.60;99.90
73360;DHT22;63092;43.582;19.528;2023-05-19T07:08:24;15.70;99.90
73360;DHT22;63092;43.582;19.528;2023-05-19T07:10:52;15.80;99.90
73360;DHT22;63092;43.582;19.528;2023-05-19T07:13:18;15.90;99.90
73360;DHT22;63092;43.582;19.528;2023-05-19T07:15:43;16.10;99.90
73360;DHT22;63092;43.582;19.528;2023-05-19T07:18:09;16.10;99.90
73360;DHT22;63092;43.582;19.528;2023-05-19T07:20:35;16.30;99.90
73360;DHT22;63092;43.582;19.528;2023-05-19T07:23:00;16.30;99.90
73360;DHT22;63092;43.582;19.528;2023-05-19T07:25:27;16.30;99.90
73360;DHT22;63092;43.582;19.528;2023-05-19T07:27:55;16.40;99.90
73360;DHT22;63092;43.582;19.528;2023-05-19T07:32:47;16.60;99.90
73360;DHT22;63092;43.582;19.528;2023-05-19T07:35:13;16.60;99.90
73360;DHT22;63092;43.582;19.528;2023-05-19T07:37:39;16.70;99.90
73360;DHT22;63092;43.582;19.528;2023-05-19T07:40:05;17.00;99.90
73360;DHT22;63092;43.582;19.528;2023-05-19T07:42:32;17.20;99.90
73360;DHT22;63092;43.582;19.528;2023-05-19T07:44:58;17.20;99.90
73360;DHT22;63092;43.582;19.528;2023-05-19T07:47:24;17.20;99.90
73360;DHT22;63092;43.582;19.528;2023-05-19T07:49:50;17.20;99.90
73360;DHT22;63092;43.582;19.528;2023-05-19T07:52:15;17.40;99.90
73360;DHT22;63092;43.582;19.528;2023-05-19T07:54:43;17.40;99.90
73360;DHT22;63092;43.582;19.528;2023-05-19T07:57:09;17.50;99.90
73360;DHT22;63092;43.582;19.528;2023-05-19T07:59:35;17.70;99.90
73360;DHT22;63092;43.582;19.528;2023-05-19T08:02:00;17.60;99.90
73360;DHT22;63092;43.582;19.528;2023-05-19T08:04:26;17.70;99.60
73360;DHT22;63092;43.582;19.528;2023-05-19T08:06:52;17.90;99.90
73360;DHT22;63092;43.582;19.528;2023-05-19T08:09:18;18.00;99.40
73360;DHT22;63092;43.582;19.528;2023-05-19T08:11:44;18.00;98.70
73360;DHT22;63092;43.582;19.528;2023-05-19T08:14:11;17.90;98.50
73360;DHT22;63092;43.582;19.528;2023-05-19T08:16:37;18.10;98.70
73360;DHT22;63092;43.582;19.528;2023-05-19T08:19:03;18.20;98.30
73360;DHT22;63092;43.582;19.528;2023-05-19T08:21:31;18.40;99.50
73360;DHT22;63092;43.582;19.528;2023-05-19T08:24:00;18.40;98.10
73360;DHT22;63092;43.582;19.528;2023-05-19T08:26:26;18.40;98.10
73360;DHT22;63092;43.582;19.528;2023-05-19T08:28:52;18.50;97.80
73360;DHT22;63092;43.582;19.528;2023-05-19T08:31:18;18.60;98.10
73360;DHT22;63092;43.582;19.528;2023-05-19T08:33:44;18.70;97.40
73360;DHT22;63092;43.582;19.528;2023-05-19T08:36:10;18.80;97.70
73360;DHT22;63092;43.582;19.528;2023-05-19T08:38:36;18.80;98.00
73360;DHT22;63092;43.582;19.528;2023-05-19T08:41:02;18.90;98.60
73360;DHT22;63092;43.582;19.528;2023-05-19T08:43:28;18.90;96.90
73360;DHT22;63092;43.582;19.528;2023-05-19T08:45:54;19.20;98.10
73360;DHT22;63092;43.582;19.528;2023-05-19T08:48:21;19.30;96.60
73360;DHT22;63092;43.582;19.528;2023-05-19T08:50:56;19.50;96.10
73360;DHT22;63092;43.582;19.528;2023-05-19T08:53:26;19.50;96.30
73360;DHT22;63092;43.582;19.528;2023-05-19T08:56:20;19.50;96.10
73360;DHT22;63092;43.582;19.528;2023-05-19T08:58:49;19.50;96.20
73360;DHT22;63092;43.582;19.528;2023-05-19T09:01:15;19.50;95.30
73360;DHT22;63092;43.582;19.528;2023-05-19T09:03:43;19.40;95.50
73360;DHT22;63092;43.582;19.528;2023-05-19T09:06:10;19.50;95.20
73360;DHT22;63092;43.582;19.528;2023-05-19T09:08:39;19.60;96.00
73360;DHT22;63092;43.582;19.528;2023-05-19T09:11:05;19.70;95.20
73360;DHT22;63092;43.582;19.528;2023-05-19T09:13:32;19.70;95.10
73360;DHT22;63092;43.582;19.528;2023-05-19T09:15:58;19.60;94.60
73360;DHT22;63092;43.582;19.528;2023-05-19T09:18:25;19.60;95.30
73360;DHT22;63092;43.582;19.528;2023-05-19T09:20:55;19.70;95.00
73360;DHT22;63092;43.582;19.528;2023-05-19T09:23:26;19.70;94.90
73360;DHT22;63092;43.582;19.528;2023-05-19T09:25:53;19.90;95.00
73360;DHT22;63092;43.582;19.528;2023-05-19T09:28:26;19.90;94.70
73360;DHT22;63092;43.582;19.528;2023-05-19T09:31:06;19.80;94.40
73360;DHT22;63092;43.582;19.528;2023-05-19T09:33:40;19.70;96.00
73360;DHT22;63092;43.582;19.528;2023-05-19T09:36:09;19.70;94.90
73360;DHT22;63092;43.582;19.528;2023-05-19T09:38:37;19.60;95.00
73360;DHT22;63092;43.582;19.528;2023-05-19T09:41:04;19.80;95.20
73360;DHT22;63092;43.582;19.528;2023-05-19T09:43:32;20.10;94.80
73360;DHT22;63092;43.582;19.528;2023-05-19T09:46:09;20.20;94.20
73360;DHT22;63092;43.582;19.528;2023-05-19T09:48:38;20.60;98.70
73360;DHT22;63092;43.582;19.528;2023-05-19T09:51:06;20.70;93.90
73360;DHT22;63092;43.582;19.528;2023-05-19T09:53:33;20.90;92.50
73360;DHT22;63092;43.582;19.528;2023-05-19T09:56:00;20.90;92.20
73360;DHT22;63092;43.582;19.528;2023-05-19T09:58:31;20.80;91.50
73360;DHT22;63092;43.582;19.528;2023-05-19T10:01:00;20.90;91.10
73360;DHT22;63092;43.582;19.528;2023-05-19T10:03:26;20.90;91.50
73360;DHT22;63092;43.582;19.528;2023-05-19T10:05:52;21.00;90.50
73360;DHT22;63092;43.582;19.528;2023-05-19T10:08:18;21.00;90.50
73360;DHT22;63092;43.582;19.528;2023-05-19T10:10:47;21.10;90.50
73360;DHT22;63092;43.582;19.528;2023-05-19T10:13:13;21.10;91.80
73360;DHT22;63092;43.582;19.528;2023-05-19T10:15:41;21.10;91.60
73360;DHT22;63092;43.582;19.528;2023-05-19T10:18:08;21.10;91.30
73360;DHT22;63092;43.582;19.528;2023-05-19T10:20:35;21.10;91.40
73360;DHT22;63092;43.582;19.528;2023-05-19T10:23:01;21.10;92.10
73360;DHT22;63092;43.582;19.528;2023-05-19T10:25:30;21.20;91.40
73360;DHT22;63092;43.582;19.528;2023-05-19T10:28:15;21.40;91.00
73360;DHT22;63092;43.582;19.528;2023-05-19T10:30:47;21.30;90.10
73360;DHT22;63092;43.582;19.528;2023-05-19T10:33:16;21.30;90.40
73360;DHT22;63092;43.582;19.528;2023-05-19T10:39:05;21.30;88.60
73360;DHT22;63092;43.582;19.528;2023-05-19T10:41:42;21.40;88.90
73360;DHT22;63092;43.582;19.528;2023-05-19T10:47:24;21.20;90.10
73360;DHT22;63092;43.582;19.528;2023-05-19T10:49:52;21.30;89.50
73360;DHT22;63092;43.582;19.528;2023-05-19T10:52:22;21.30;87.60
73360;DHT22;63092;43.582;19.528;2023-05-19T10:54:50;21.30;88.00
73360;DHT22;63092;43.582;19.528;2023-05-19T10:57:20;21.40;87.60
73360;DHT22;63092;43.582;19.528;2023-05-19T10:59:51;21.50;88.20
73360;DHT22;63092;43.582;19.528;2023-05-19T11:02:39;21.60;86.90
73360;DHT22;63092;43.582;19.528;2023-05-19T11:05:15;21.70;84.50
73360;DHT22;63092;43.582;19.528;2023-05-19T11:07:43;21.60;81.80
73360;DHT22;63092;43.582;19.528;2023-05-19T11:10:25;21.80;82.50
73360;DHT22;63092;43.582;19.528;2023-05-19T11:12:51;22.00;83.60
73360;DHT22;63092;43.582;19.528;2023-05-19T11:17:47;22.40;83.70
73360;DHT22;63092;43.582;19.528;2023-05-19T11:20:25;22.30;83.50
73360;DHT22;63092;43.582;19.528;2023-05-19T11:23:07;22.00;80.10
73360;DHT22;63092;43.582;19.528;2023-05-19T11:25:48;21.80;84.60
73360;DHT22;63092;43.582;19.528;2023-05-19T11:28:19;21.60;81.50
73360;DHT22;63092;43.582;19.528;2023-05-19T11:30:46;21.50;82.40
73360;DHT22;63092;43.582;19.528;2023-05-19T11:33:14;21.40;81.20
73360;DHT22;63092;43.582;19.528;2023-05-19T11:35:45;21.30;82.80
73360;DHT22;63092;43.582;19.528;2023-05-19T11:38:12;21.30;85.90
73360;DHT22;63092;43.582;19.528;2023-05-19T11:40:41;21.40;86.40
73360;DHT22;63092;43.582;19.528;2023-05-19T11:43:06;21.50;84.00
73360;DHT22;63092;43.582;19.528;2023-05-19T11:45:33;21.70;84.70
73360;DHT22;63092;43.582;19.528;2023-05-19T11:48:00;21.90;82.60
73360;DHT22;63092;43.582;19.528;2023-05-19T11:50:27;21.90;83.20
73360;DHT22;63092;43.582;19.528;2023-05-19T11:52:54;21.80;81.00
73360;DHT22;63092;43.582;19.528;2023-05-19T11:55:20;21.70;82.70
73360;DHT22;63092;43.582;19.528;2023-05-19T11:58:05;21.70;82.90
73360;DHT22;63092;43.582;19.528;2023-05-19T12:00:35;21.60;83.80
73360;DHT22;63092;43.582;19.528;2023-05-19T12:03:04;21.60;83.10
73360;DHT22;63092;43.582;19.528;2023-05-19T12:05:30;21.50;83.20
73360;DHT22;63092;43.582;19.528;2023-05-19T12:07:56;21.40;81.80
73360;DHT22;63092;43.582;19.528;2023-05-19T12:10:26;21.50;81.60
73360;DHT22;63092;43.582;19.528;2023-05-19T12:12:53;21.70;81.40
73360;DHT22;63092;43.582;19.528;2023-05-19T12:15:23;21.80;80.60
73360;DHT22;63092;43.582;19.528;2023-05-19T12:17:57;21.90;81.40
73360;DHT22;63092;43.582;19.528;2023-05-19T12:20:24;22.00;80.20
73360;DHT22;63092;43.582;19.528;2023-05-19T12:22:51;22.30;82.20
73360;DHT22;63092;43.582;19.528;2023-05-19T12:25:17;22.40;83.60
73360;DHT22;63092;43.582;19.528;2023-05-19T12:27:43;22.50;82.80
73360;DHT22;63092;43.582;19.528;2023-05-19T12:30:10;22.30;82.10
73360;DHT22;63092;43.582;19.528;2023-05-19T12:32:37;22.20;81.80
73360;DHT22;63092;43.582;19.528;2023-05-19T12:35:03;22.10;83.00
73360;DHT22;63092;43.582;19.528;2023-05-19T12:37:30;22.10;82.40
73360;DHT22;63092;43.582;19.528;2023-05-19T12:40:00;21.90;82.60
73360;DHT22;63092;43.582;19.528;2023-05-19T12:42:27;22.00;82.90
73360;DHT22;63092;43.582;19.528;2023-05-19T12:44:59;22.20;85.10
73360;DHT22;63092;43.582;19.528;2023-05-19T12:47:32;22.40;83.90
73360;DHT22;63092;43.582;19.528;2023-05-19T12:52:26;22.40;82.20
73360;DHT22;63092;43.582;19.528;2023-05-19T12:55:04;22.20;82.00
73360;DHT22;63092;43.582;19.528;2023-05-19T12:57:34;22.20;82.50
73360;DHT22;63092;43.582;19.528;2023-05-19T13:03:00;22.00;81.90
73360;DHT22;63092;43.582;19.528;2023-05-19T13:05:28;21.90;79.10
73360;DHT22;63092;43.582;19.528;2023-05-19T13:08:08;21.90;80.10
73360;DHT22;63092;43.582;19.528;2023-05-19T13:10:35;21.90;78.70
73360;DHT22;63092;43.582;19.528;2023-05-19T13:13:01;22.10;80.40
73360;DHT22;63092;43.582;19.528;2023-05-19T13:15:29;22.20;81.30
73360;DHT22;63092;43.582;19.528;2023-05-19T13:17:56;22.50;79.10
73360;DHT22;63092;43.582;19.528;2023-05-19T13:20:22;22.50;77.30
73360;DHT22;63092;43.582;19.528;2023-05-19T13:22:49;22.40;77.20
73360;DHT22;63092;43.582;19.528;2023-05-19T13:25:15;22.40;80.80
73360;DHT22;63092;43.582;19.528;2023-05-19T13:27:42;22.40;79.40
73360;DHT22;63092;43.582;19.528;2023-05-19T13:30:09;22.30;78.70
73360;DHT22;63092;43.582;19.528;2023-05-19T13:32:34;22.30;78.70
73360;DHT22;63092;43.582;19.528;2023-05-19T13:35:00;22.30;79.50
73360;DHT22;63092;43.582;19.528;2023-05-19T13:37:26;22.40;80.00
73360;DHT22;63092;43.582;19.528;2023-05-19T13:39:53;22.50;77.80
73360;DHT22;63092;43.582;19.528;2023-05-19T13:42:18;22.50;80.50
73360;DHT22;63092;43.582;19.528;2023-05-19T13:44:44;22.60;80.60
73360;DHT22;63092;43.582;19.528;2023-05-19T13:47:10;22.70;78.70
73360;DHT22;63092;43.582;19.528;2023-05-19T13:49:36;22.80;77.90
73360;DHT22;63092;43.582;19.528;2023-05-19T13:52:02;22.90;79.00
73360;DHT22;63092;43.582;19.528;2023-05-19T13:54:28;22.80;78.90
73360;DHT22;63092;43.582;19.528;2023-05-19T13:56:54;22.80;79.50
73360;DHT22;63092;43.582;19.528;2023-05-19T13:59:20;22.50;78.70
73360;DHT22;63092;43.582;19.528;2023-05-19T14:01:46;22.40;80.10
73360;DHT22;63092;43.582;19.528;2023-05-19T14:04:12;22.30;79.40
73360;DHT22;63092;43.582;19.528;2023-05-19T14:06:38;22.30;81.00
73360;DHT22;63092;43.582;19.528;2023-05-19T14:09:04;22.20;79.60
73360;DHT22;63092;43.582;19.528;2023-05-19T14:11:31;22.10;81.60
73360;DHT22;63092;43.582;19.528;2023-05-19T14:13:56;22.10;81.40
73360;DHT22;63092;43.582;19.528;2023-05-19T14:16:22;22.10;80.20
73360;DHT22;63092;43.582;19.528;2023-05-19T14:18:50;22.20;80.30
73360;DHT22;63092;43.582;19.528;2023-05-19T14:21:16;22.30;80.70
73360;DHT22;63092;43.582;19.528;2023-05-19T14:23:42;22.50;81.90
73360;DHT22;63092;43.582;19.528;2023-05-19T14:26:08;22.60;80.50
73360;DHT22;63092;43.582;19.528;2023-05-19T14:28:33;22.70;80.60
73360;DHT22;63092;43.582;19.528;2023-05-19T14:30:59;22.80;78.00
73360;DHT22;63092;43.582;19.528;2023-05-19T14:33:25;22.80;80.60
73360;DHT22;63092;43.582;19.528;2023-05-19T14:35:51;22.90;78.10
73360;DHT22;63092;43.582;19.528;2023-05-19T14:38:17;22.90;77.90
73360;DHT22;63092;43.582;19.528;2023-05-19T14:40:43;23.00;75.60
73360;DHT22;63092;43.582;19.528;2023-05-19T14:43:10;23.00;75.10
73360;DHT22;63092;43.582;19.528;2023-05-19T14:45:40;22.90;75.80
73360;DHT22;63092;43.582;19.528;2023-05-19T14:48:08;22.90;75.70
73360;DHT22;63092;43.582;19.528;2023-05-19T14:50:36;23.00;76.10
73360;DHT22;63092;43.582;19.528;2023-05-19T14:53:02;22.90;75.90
73360;DHT22;63092;43.582;19.528;2023-05-19T14:55:28;22.90;75.80
73360;DHT22;63092;43.582;19.528;2023-05-19T14:57:54;22.90;78.80
73360;DHT22;63092;43.582;19.528;2023-05-19T15:00:19;22.90;78.30
73360;DHT22;63092;43.582;19.528;2023-05-19T15:02:45;22.90;76.20
73360;DHT22;63092;43.582;19.528;2023-05-19T15:05:12;22.70;77.00
73360;DHT22;63092;43.582;19.528;2023-05-19T15:07:38;22.70;77.40
73360;DHT22;63092;43.582;19.528;2023-05-19T15:10:04;22.70;77.40
73360;DHT22;63092;43.582;19.528;2023-05-19T15:12:30;22.80;77.20
73360;DHT22;63092;43.582;19.528;2023-05-19T15:14:55;22.80;79.10
73360;DHT22;63092;43.582;19.528;2023-05-19T15:17:21;22.80;78.40
73360;DHT22;63092;43.582;19.528;2023-05-19T15:19:47;22.70;77.90
73360;DHT22;63092;43.582;19.528;2023-05-19T15:22:12;22.50;77.40
73360;DHT22;63092;43.582;19.528;2023-05-19T15:24:40;22.60;77.30
73360;DHT22;63092;43.582;19.528;2023-05-19T15:27:06;22.50;76.90
73360;DHT22;63092;43.582;19.528;2023-05-19T15:29:33;22.40;77.00
73360;DHT22;63092;43.582;19.528;2023-05-19T15:31:59;22.30;78.00
73360;DHT22;63092;43.582;19.528;2023-05-19T15:34:25;22.40;78.90
73360;DHT22;63092;43.582;19.528;2023-05-19T15:36:51;22.40;78.00
73360;DHT22;63092;43.582;19.528;2023-05-19T15:39:16;22.40;78.60
73360;DHT22;63092;43.582;19.528;2023-05-19T15:41:42;22.40;78.90
73360;DHT22;63092;43.582;19.528;2023-05-19T15:44:08;22.30;79.20